Time;durP1;ratioP1;P1;durP2;ratioP2;P2;SDS_P1;SDS_P2;PMS_P1;PMS_P2;Temp;Humidity;BMP_temperature;BMP_pressure;BME280_temperature;BME280_humidity;BME280_pressure;Samples;Min_cycle;Max_cycle;Signal;HPM_P1;HPM_P2
2023/09/25 04:02:28;;;;;;;3.53;1.77;;;12.00;76.50;;;;;;6296768;22;20463;-74
2023/09/25 04:04:55;;;;;;;2.33;1.40;;;11.80;76.80;;;;;;6308621;22;20393;-74
2023/09/25 04:07:22;;;;;;;1.90;1.20;;;11.80;77.10;;;;;;6308607;22;20519;-74
2023/09/25 04:09:48;;;;;;;2.27;1.70;;;11.80;77.00;;;;;;6308589;22;20400;-74
2023/09/25 04:12:16;;;;;;;2.17;1.33;;;11.80;77.30;;;;;;6283887;22;20429;-74
2023/09/25 04:14:44;;;;;;;4.90;1.50;;;11.80;77.20;;;;;;6277916;22;20404;-74
2023/09/25 04:17:11;;;;;;;1.90;1.37;;;11.80;77.20;;;;;;6277461;22;20913;-74
2023/09/25 04:19:39;;;;;;;1.80;1.10;;;11.90;76.90;;;;;;6277451;22;20707;-74
2023/09/25 04:22:06;;;;;;;2.50;1.70;;;11.90;77.00;;;;;;6277082;22;20792;-74
2023/09/25 04:24:34;;;;;;;2.27;1.50;;;11.80;77.10;;;;;;6277483;22;20488;-74
2023/09/25 04:27:02;;;;;;;2.50;1.60;;;11.80;77.00;;;;;;6277447;22;20419;-74
2023/09/25 04:29:28;;;;;;;1.87;1.07;;;11.80;76.90;;;;;;6277482;22;20492;-74
2023/09/25 04:31:55;;;;;;;2.00;1.10;;;11.80;77.00;;;;;;6277353;22;20413;-74
2023/09/25 04:34:22;;;;;;;2.03;1.30;;;11.80;77.10;;;;;;6277344;22;20406;-74
2023/09/25 04:36:51;;;;;;;2.60;1.50;;;11.80;76.80;;;;;;6277310;22;20439;-74
2023/09/25 04:39:17;;;;;;;1.90;1.33;;;11.80;76.80;;;;;;6277335;22;20451;-74
2023/09/25 04:41:45;;;;;;;2.73;1.50;;;11.80;76.80;;;;;;6277168;22;20475;-74
2023/09/25 04:44:11;;;;;;;2.07;1.27;;;11.80;76.80;;;;;;6277280;22;20396;-74
2023/09/25 04:46:38;;;;;;;2.97;1.77;;;11.80;76.90;;;;;;6277258;22;20424;-74
2023/09/25 04:49:06;;;;;;;1.97;1.23;;;11.80;76.90;;;;;;6277158;22;20405;-75
2023/09/25 04:51:33;;;;;;;2.00;1.40;;;11.80;77.00;;;;;;6278114;22;20417;-74
2023/09/25 04:54:02;;;;;;;4.40;1.30;;;11.80;77.00;;;;;;6277163;22;20715;-74
2023/09/25 04:56:29;;;;;;;2.50;1.70;;;11.70;77.10;;;;;;6277189;22;20402;-74
2023/09/25 04:58:57;;;;;;;2.67;1.30;;;11.70;77.10;;;;;;6276785;22;20432;-74
2023/09/25 05:01:24;;;;;;;3.80;1.67;;;11.70;77.20;;;;;;6276745;22;20453;-74
2023/09/25 05:03:50;;;;;;;2.03;1.00;;;11.70;77.20;;;;;;6277095;22;20408;-74
2023/09/25 05:06:17;;;;;;;2.10;1.33;;;11.70;77.10;;;;;;6277061;22;20409;-74
2023/09/25 05:08:44;;;;;;;2.10;1.30;;;11.70;77.20;;;;;;6277050;22;20409;-74
2023/09/25 05:11:12;;;;;;;2.47;1.47;;;11.70;77.40;;;;;;6276900;22;20452;-74
2023/09/25 05:13:39;;;;;;;2.30;1.37;;;11.70;77.20;;;;;;6276964;22;20417;-74
2023/09/25 05:16:06;;;;;;;2.30;1.40;;;11.70;77.20;;;;;;6277168;22;20414;-74
2023/09/25 05:18:32;;;;;;;2.10;1.53;;;11.70;77.20;;;;;;6276936;22;20488;-73
2023/09/25 05:20:59;;;;;;;2.20;1.40;;;11.70;77.30;;;;;;6276800;22;20445;-74
2023/09/25 05:23:26;;;;;;;2.33;1.60;;;11.80;77.20;;;;;;6276916;22;20398;-74
2023/09/25 05:25:53;;;;;;;2.23;1.53;;;11.80;77.20;;;;;;6276357;22;20408;-74
2023/09/25 05:28:22;;;;;;;2.30;1.30;;;11.70;77.40;;;;;;6276652;22;20429;-74
2023/09/25 05:30:49;;;;;;;2.10;1.50;;;11.80;77.40;;;;;;6276557;22;20417;-74
2023/09/25 05:33:15;;;;;;;2.77;1.47;;;11.80;77.70;;;;;;6276601;22;20886;-73
2023/09/25 05:35:42;;;;;;;2.83;1.60;;;12.10;77.50;;;;;;6276217;22;20900;-74
2023/09/25 05:38:09;;;;;;;2.50;1.40;;;12.50;76.90;;;;;;6276211;22;20946;-74
2023/09/25 05:40:35;;;;;;;2.70;1.70;;;13.00;75.20;;;;;;6276135;22;20441;-74
2023/09/25 05:43:02;;;;;;;3.20;1.80;;;13.30;73.70;;;;;;6277088;22;20431;-74
2023/09/25 05:45:30;;;;;;;2.00;1.40;;;13.50;73.00;;;;;;6277086;22;20401;-74
2023/09/25 05:47:57;;;;;;;2.30;1.20;;;13.50;72.60;;;;;;6276705;22;20429;-74
2023/09/25 05:50:26;;;;;;;4.10;1.90;;;13.40;72.90;;;;;;6276556;22;20448;-74
2023/09/25 05:52:54;;;;;;;2.37;1.43;;;13.40;73.10;;;;;;6276676;22;20405;-74
2023/09/25 05:55:21;;;;;;;2.10;1.50;;;13.30;73.40;;;;;;6276966;22;20427;-74
2023/09/25 05:57:48;;;;;;;2.03;1.33;;;13.20;73.80;;;;;;6276619;22;20409;-74
2023/09/25 06:00:18;;;;;;;3.00;1.50;;;13.20;74.10;;;;;;6276211;22;20402;-74
2023/09/25 06:02:47;;;;;;;3.60;1.53;;;13.20;74.50;;;;;;6276031;22;20451;-74
2023/09/25 06:05:13;;;;;;;6.27;1.30;;;13.20;74.60;;;;;;6276599;22;20398;-74
2023/09/25 06:07:40;;;;;;;3.33;1.80;;;13.20;74.80;;;;;;6276624;22;20400;-74
2023/09/25 06:10:08;;;;;;;2.90;1.40;;;13.20;75.30;;;;;;6276879;22;20401;-74
2023/09/25 06:12:35;;;;;;;2.73;1.43;;;13.30;75.40;;;;;;6276475;22;20796;-75
2023/09/25 06:15:05;;;;;;;5.10;1.60;;;13.40;75.40;;;;;;6276185;22;20880;-75
2023/09/25 06:17:32;;;;;;;2.93;1.70;;;13.70;76.00;;;;;;6276147;22;20953;-75
2023/09/25 06:20:00;;;;;;;2.40;1.40;;;14.70;75.80;;;;;;6276327;22;20887;-75
2023/09/25 06:22:27;;;;;;;2.83;1.20;;;16.40;73.10;;;;;;6276366;22;20523;-75
2023/09/25 06:24:54;;;;;;;2.83;1.70;;;18.30;67.40;;;;;;6276498;22;20401;-75
2023/09/25 06:27:21;;;;;;;2.53;1.60;;;20.20;62.60;;;;;;6276839;22;20401;-75
2023/09/25 06:29:47;;;;;;;1.93;1.47;;;22.10;57.40;;;;;;6276069;22;20888;-75
2023/09/25 06:32:14;;;;;;;2.47;1.50;;;23.70;53.60;;;;;;6276015;22;20920;-75
2023/09/25 06:34:41;;;;;;;4.20;1.70;;;25.30;50.10;;;;;;6276427;22;20412;-75
2023/09/25 06:37:08;;;;;;;2.10;1.60;;;26.60;48.00;;;;;;6276033;22;20900;-75
2023/09/25 06:39:35;;;;;;;2.00;1.30;;;27.90;44.40;;;;;;6277462;22;20714;-75
2023/09/25 06:42:03;;;;;;;1.90;1.20;;;28.70;42.60;;;;;;6276248;22;20456;-75
2023/09/25 06:44:30;;;;;;;1.90;1.43;;;29.40;40.70;;;;;;6276645;22;20410;-76
2023/09/25 06:46:57;;;;;;;2.17;1.37;;;30.20;40.00;;;;;;6276655;22;20411;-75
2023/09/25 06:49:23;;;;;;;2.03;1.40;;;31.10;39.10;;;;;;6276210;22;20405;-76
2023/09/25 06:51:50;;;;;;;2.10;1.50;;;32.10;38.20;;;;;;6276592;22;20443;-76
2023/09/25 06:54:18;;;;;;;2.50;1.37;;;32.90;36.20;;;;;;6276621;22;20409;-76
2023/09/25 06:56:45;;;;;;;2.90;1.50;;;32.90;35.50;;;;;;6276269;22;20401;-76
2023/09/25 06:59:11;;;;;;;2.50;1.30;;;33.40;35.80;;;;;;6276421;22;20397;-75
2023/09/25 07:01:38;;;;;;;1.83;1.33;;;33.90;34.90;;;;;;6276106;22;20548;-76
2023/09/25 07:04:06;;;;;;;2.00;1.23;;;33.60;34.60;;;;;;6276338;22;20455;-75
2023/09/25 07:06:33;;;;;;;2.30;1.50;;;33.80;34.30;;;;;;6276270;22;20412;-76
2023/09/25 07:09:02;;;;;;;2.27;1.10;;;34.40;34.60;;;;;;6275867;22;20751;-75
2023/09/25 07:11:30;;;;;;;2.43;1.60;;;34.40;33.50;;;;;;6276302;22;20755;-75
2023/09/25 07:13:57;;;;;;;2.33;1.33;;;33.80;34.20;;;;;;6278055;22;20429;-76
2023/09/25 07:16:24;;;;;;;1.83;1.30;;;33.80;34.10;;;;;;6277727;22;20938;-75
2023/09/25 07:18:50;;;;;;;2.63;1.87;;;32.70;35.30;;;;;;6277671;22;20914;-76
2023/09/25 07:21:17;;;;;;;3.10;1.37;;;31.80;37.10;;;;;;6277824;22;20486;-75
2023/09/25 07:23:44;;;;;;;2.30;1.40;;;30.90;37.90;;;;;;6277977;22;20397;-75
2023/09/25 07:26:11;;;;;;;2.87;1.50;;;29.70;39.70;;;;;;6278002;22;20397;-75
2023/09/25 07:28:39;;;;;;;2.40;1.80;;;28.50;40.50;;;;;;6277965;22;20410;-75
2023/09/25 07:31:06;;;;;;;2.90;1.73;;;26.30;43.90;;;;;;6277879;22;20413;-75
2023/09/25 07:33:33;;;;;;;2.43;1.87;;;24.80;46.20;;;;;;6277976;22;20744;-74
2023/09/25 07:36:01;;;;;;;3.20;1.90;;;23.30;48.60;;;;;;6278176;22;20408;-74
2023/09/25 07:38:28;;;;;;;2.13;1.77;;;22.50;51.20;;;;;;6278160;22;20397;-74
2023/09/25 07:40:57;;;;;;;2.37;1.30;;;21.70;52.30;;;;;;6278032;22;20470;-74
2023/09/25 07:43:23;;;;;;;3.17;1.37;;;21.50;53.90;;;;;;6277850;22;20416;-74
2023/09/25 07:45:54;;;;;;;2.57;1.83;;;21.00;54.20;;;;;;6277898;22;20402;-74
2023/09/25 07:48:21;;;;;;;2.07;1.20;;;20.40;55.10;;;;;;6277945;22;20382;-74
2023/09/25 07:50:47;;;;;;;2.60;1.40;;;19.80;56.80;;;;;;6277741;22;20417;-75
2023/09/25 07:53:15;;;;;;;2.40;1.60;;;19.60;58.10;;;;;;6277786;22;20409;-75
2023/09/25 07:55:41;;;;;;;1.97;1.30;;;19.60;58.30;;;;;;6277839;22;20401;-75
2023/09/25 07:58:11;;;;;;;2.10;1.33;;;19.40;58.80;;;;;;6250996;22;20402;-75
2023/09/25 08:00:40;;;;;;;2.70;1.43;;;19.60;57.40;;;;;;6277515;22;20800;-75
2023/09/25 08:03:08;;;;;;;2.03;1.40;;;19.50;58.70;;;;;;6277723;22;20432;-75
2023/09/25 08:05:36;;;;;;;2.80;1.50;;;19.40;59.60;;;;;;6277684;22;20413;-76
2023/09/25 08:08:03;;;;;;;4.50;1.60;;;19.90;59.60;;;;;;6277682;22;20398;-75
2023/09/25 08:10:30;;;;;;;2.73;1.90;;;19.90;59.40;;;;;;6277567;22;20402;-76
2023/09/25 08:12:56;;;;;;;3.73;2.00;;;20.00;59.60;;;;;;6277662;22;20400;-75
2023/09/25 08:15:24;;;;;;;3.20;1.83;;;20.00;59.30;;;;;;6277638;22;20401;-75
2023/09/25 08:17:51;;;;;;;2.53;1.60;;;20.30;59.00;;;;;;6277597;22;20406;-76
2023/09/25 08:20:22;;;;;;;2.23;1.53;;;20.40;58.90;;;;;;6278086;22;20486;-77
2023/09/25 08:22:49;;;;;;;3.00;1.40;;;20.40;58.40;;;;;;6276997;22;20425;-75
2023/09/25 08:25:17;;;;;;;2.47;1.53;;;20.40;58.90;;;;;;6277216;22;20425;-75
2023/09/25 08:27:44;;;;;;;3.70;1.90;;;20.70;57.90;;;;;;6277394;22;20435;-75
2023/09/25 08:30:13;;;;;;;2.53;1.40;;;20.70;57.60;;;;;;6277113;22;20458;-75
2023/09/25 08:32:39;;;;;;;3.30;1.50;;;20.60;58.00;;;;;;6277392;22;20429;-74
2023/09/25 08:35:09;;;;;;;3.20;1.40;;;20.50;58.40;;;;;;6277432;22;20404;-75
2023/09/25 08:37:38;;;;;;;2.83;1.70;;;20.40;58.10;;;;;;6276987;22;20884;-75
2023/09/25 08:40:08;;;;;;;2.10;1.30;;;20.20;56.80;;;;;;6277324;22;20402;-75
2023/09/25 08:42:36;;;;;;;1.80;1.00;;;20.30;57.90;;;;;;6277167;22;20437;-75
2023/09/25 08:45:04;;;;;;;2.00;1.10;;;20.40;56.00;;;;;;6277208;22;20404;-74
2023/09/25 08:47:32;;;;;;;1.73;1.33;;;20.60;54.00;;;;;;6277135;22;20402;-74
2023/09/25 08:50:00;;;;;;;2.10;1.30;;;20.80;54.90;;;;;;6277202;22;20455;-74
2023/09/25 08:52:27;;;;;;;1.90;1.30;;;20.40;55.10;;;;;;6276976;22;20421;-74
2023/09/25 08:54:55;;;;;;;2.10;1.27;;;20.10;56.70;;;;;;6276613;22;20408;-74
2023/09/25 08:57:23;;;;;;;2.00;1.33;;;20.00;57.60;;;;;;6277028;22;20398;-74
2023/09/25 08:59:50;;;;;;;2.47;1.37;;;19.90;57.70;;;;;;6276985;22;20408;-74
2023/09/25 09:02:18;;;;;;;2.17;1.60;;;19.80;59.30;;;;;;6276475;22;20476;-75
2023/09/25 09:04:45;;;;;;;3.00;1.47;;;19.80;61.40;;;;;;6276991;22;20398;-75
2023/09/25 09:07:14;;;;;;;2.43;1.70;;;19.80;58.30;;;;;;6276890;22;20429;-75
2023/09/25 09:09:40;;;;;;;2.27;1.47;;;19.80;57.50;;;;;;6276898;22;20401;-75
2023/09/25 09:12:09;;;;;;;1.90;1.23;;;19.70;59.80;;;;;;6276851;22;20413;-75
2023/09/25 09:14:37;;;;;;;2.20;1.30;;;19.90;57.80;;;;;;6276844;22;20443;-75
2023/09/25 09:17:05;;;;;;;2.53;1.40;;;19.50;57.50;;;;;;6276956;22;20432;-75
2023/09/25 09:19:36;;;;;;;2.40;1.67;;;19.30;59.00;;;;;;6276946;22;20466;-75
2023/09/25 09:22:05;;;;;;;1.77;1.10;;;19.40;58.50;;;;;;6276355;22;20499;-76
2023/09/25 09:24:32;;;;;;;2.40;1.23;;;19.60;56.90;;;;;;6276846;22;20451;-75
2023/09/25 09:26:59;;;;;;;2.00;1.27;;;19.30;57.30;;;;;;6276464;22;20888;-75
2023/09/25 09:29:27;;;;;;;2.10;1.20;;;19.20;59.00;;;;;;6276825;22;20416;-75
2023/09/25 09:31:55;;;;;;;2.60;1.17;;;19.30;59.20;;;;;;6276734;22;20418;-75
2023/09/25 09:34:23;;;;;;;3.10;1.30;;;19.20;60.20;;;;;;6276328;22;20978;-75
2023/09/25 09:36:52;;;;;;;2.43;1.50;;;19.30;61.40;;;;;;6276834;22;20397;-75
2023/09/25 09:39:20;;;;;;;2.37;1.27;;;19.40;58.80;;;;;;6276709;22;20441;-75
2023/09/25 09:41:50;;;;;;;2.20;1.37;;;19.50;60.50;;;;;;6276553;22;20444;-75
2023/09/25 09:44:17;;;;;;;2.00;1.33;;;19.60;58.70;;;;;;6276670;22;20397;-75
2023/09/25 09:46:46;;;;;;;2.03;1.43;;;19.40;60.40;;;;;;6276706;22;20393;-75
2023/09/25 09:49:16;;;;;;;2.27;1.37;;;19.30;60.60;;;;;;6276645;22;20402;-75
2023/09/25 09:51:45;;;;;;;1.90;1.00;;;19.30;58.60;;;;;;6276934;22;20417;-75
2023/09/25 09:54:13;;;;;;;2.27;1.10;;;19.50;61.10;;;;;;6276622;22;20406;-76
2023/09/25 09:56:41;;;;;;;2.60;1.60;;;19.60;59.50;;;;;;6277315;22;20488;-76
2023/09/25 09:59:07;;;;;;;2.47;1.27;;;19.70;60.00;;;;;;6276586;22;20448;-75
2023/09/25 10:01:35;;;;;;;2.00;1.20;;;19.80;60.50;;;;;;6275925;22;20433;-75
2023/09/25 10:04:05;;;;;;;2.67;1.40;;;19.50;59.10;;;;;;6276530;22;20409;-75
2023/09/25 10:06:36;;;;;;;2.57;1.13;;;19.40;58.70;;;;;;6276559;22;20409;-76
2023/09/25 10:09:10;;;;;;;1.60;1.00;;;19.50;58.80;;;;;;6276100;22;20389;-75
2023/09/25 10:11:37;;;;;;;1.70;1.00;;;19.40;60.70;;;;;;6276481;22;20417;-76
2023/09/25 10:14:04;;;;;;;2.17;1.23;;;19.50;59.80;;;;;;6276463;22;20467;-76
2023/09/25 10:16:51;;;;;;;1.90;1.43;;;19.50;60.30;;;;;;6277232;22;20401;-78
2023/09/25 10:19:21;;;;;;;6.77;2.83;;;19.60;58.90;;;;;;6276711;22;20754;-77
2023/09/25 10:22:11;;;;;;;2.37;1.30;;;19.80;59.60;;;;;;6276153;22;20418;-76
2023/09/25 10:24:39;;;;;;;2.33;1.20;;;20.00;58.90;;;;;;6276219;22;20974;-74
2023/09/25 10:27:06;;;;;;;1.83;1.10;;;20.10;59.60;;;;;;6276437;22;20393;-75
2023/09/25 10:29:32;;;;;;;2.33;1.10;;;20.10;58.50;;;;;;6276389;22;20401;-74
2023/09/25 10:32:01;;;;;;;1.80;1.00;;;20.00;59.10;;;;;;6276348;22;20425;-75
2023/09/25 10:34:29;;;;;;;2.97;1.40;;;19.80;57.40;;;;;;6276447;22;20401;-75
2023/09/25 10:36:59;;;;;;;2.10;1.20;;;19.90;58.30;;;;;;6276466;22;20397;-74
2023/09/25 10:39:28;;;;;;;2.10;1.50;;;19.80;58.20;;;;;;6276700;22;20386;-74
2023/09/25 10:42:01;;;;;;;2.67;1.90;;;19.90;58.60;;;;;;6276825;22;20420;-73
2023/09/25 10:44:28;;;;;;;2.50;1.60;;;20.20;60.80;;;;;;6276678;22;20382;-74
2023/09/25 10:46:55;;;;;;;2.90;1.47;;;20.30;58.80;;;;;;6276875;22;20405;-74
2023/09/25 10:49:23;;;;;;;2.30;1.40;;;20.60;59.70;;;;;;6278422;22;20405;-72
2023/09/25 10:51:51;;;;;;;3.97;1.57;;;20.50;58.60;;;;;;6279869;22;20421;-73
2023/09/25 10:54:18;;;;;;;2.70;1.30;;;20.50;58.60;;;;;;6278325;22;20397;-73
2023/09/25 10:56:45;;;;;;;2.80;1.40;;;20.70;59.70;;;;;;6278302;22;20401;-73
2023/09/25 10:59:12;;;;;;;2.30;1.70;;;20.90;60.40;;;;;;6278261;22;20405;-73
2023/09/25 11:01:39;;;;;;;2.70;1.40;;;21.00;59.00;;;;;;6279008;22;20437;-74
2023/09/25 11:04:07;;;;;;;3.47;1.60;;;21.00;57.70;;;;;;6279654;22;20452;-74
2023/09/25 11:06:34;;;;;;;1.90;1.20;;;21.10;58.30;;;;;;6280223;22;20412;-74
2023/09/25 11:09:11;;;;;;;2.03;1.33;;;21.20;56.30;;;;;;6279793;22;20401;-72
2023/09/25 11:11:40;;;;;;;2.37;1.23;;;21.20;55.50;;;;;;6279378;22;20433;-74
2023/09/25 11:14:07;;;;;;;2.63;1.70;;;21.20;57.20;;;;;;6278989;22;20732;-74
2023/09/25 11:16:35;;;;;;;2.07;1.50;;;21.10;55.50;;;;;;6279307;22;20404;-73
2023/09/25 11:19:08;;;;;;;3.63;1.30;;;20.90;54.70;;;;;;6279584;22;20420;-73
2023/09/25 11:21:34;;;;;;;2.47;1.47;;;20.80;55.50;;;;;;6280558;22;20421;-74
2023/09/25 11:24:05;;;;;;;1.80;1.10;;;20.90;55.10;;;;;;6279875;22;20506;-73
2023/09/25 11:26:37;;;;;;;1.97;1.00;;;20.80;54.70;;;;;;6279110;22;20397;-73
2023/09/25 11:29:07;;;;;;;2.60;1.23;;;20.70;56.80;;;;;;6279020;22;20390;-73
2023/09/25 11:31:34;;;;;;;2.43;1.57;;;20.70;56.50;;;;;;6279031;22;20422;-74
2023/09/25 11:34:01;;;;;;;1.80;1.00;;;20.90;57.90;;;;;;6279537;22;20429;-74
2023/09/25 11:36:30;;;;;;;1.90;1.10;;;21.10;55.10;;;;;;6278406;22;20397;-76
2023/09/25 11:38:57;;;;;;;2.70;1.50;;;21.40;55.50;;;;;;6278202;22;20401;-74
2023/09/25 11:41:23;;;;;;;2.20;1.17;;;21.60;54.50;;;;;;6277829;22;20836;-74
2023/09/25 11:43:51;;;;;;;2.00;1.20;;;21.60;54.30;;;;;;6278324;22;20438;-75
2023/09/25 11:46:18;;;;;;;2.23;1.30;;;22.10;54.20;;;;;;6278570;22;20421;-74
2023/09/25 11:48:45;;;;;;;2.37;1.27;;;22.50;52.80;;;;;;6279725;22;20397;-74
2023/09/25 11:51:12;;;;;;;2.03;1.40;;;23.00;52.70;;;;;;6278449;22;20792;-74
2023/09/25 11:53:38;;;;;;;2.40;1.20;;;23.20;51.10;;;;;;6277701;22;20911;-75
2023/09/25 11:56:06;;;;;;;2.27;1.20;;;23.30;51.20;;;;;;6277496;22;20739;-74
2023/09/25 11:58:33;;;;;;;5.10;1.40;;;23.50;51.90;;;;;;6277406;22;20448;-75
2023/09/25 12:01:02;;;;;;;2.33;1.30;;;23.40;51.80;;;;;;6277872;22;20428;-74
2023/09/25 12:03:30;;;;;;;2.13;1.37;;;23.40;51.60;;;;;;6278111;22;20476;-76
2023/09/25 12:05:57;;;;;;;1.70;1.10;;;23.50;53.00;;;;;;6278048;22;20428;-75
2023/09/25 12:08:24;;;;;;;2.00;1.30;;;23.80;52.20;;;;;;6278268;22;20401;-76
2023/09/25 12:10:50;;;;;;;2.57;1.30;;;24.00;51.50;;;;;;6277661;22;20425;-75
2023/09/25 12:13:18;;;;;;;2.27;1.30;;;24.00;49.90;;;;;;6277590;22;20440;-75
2023/09/25 12:15:44;;;;;;;2.47;1.30;;;24.10;50.10;;;;;;6278067;22;20401;-75
2023/09/25 12:18:13;;;;;;;2.77;1.13;;;24.40;51.00;;;;;;6277822;22;20398;-77
2023/09/25 12:20:41;;;;;;;1.80;1.20;;;24.40;50.30;;;;;;6278104;22;20433;-76
2023/09/25 12:23:09;;;;;;;2.00;1.20;;;24.40;50.30;;;;;;6277920;22;20789;-75
2023/09/25 12:25:36;;;;;;;2.30;1.50;;;24.40;50.50;;;;;;6277502;22;20464;-75
2023/09/25 12:28:05;;;;;;;1.83;1.20;;;24.50;51.30;;;;;;6277525;22;20397;-75
2023/09/25 12:30:33;;;;;;;2.00;1.33;;;24.60;49.80;;;;;;6277761;22;20397;-75
2023/09/25 12:33:00;;;;;;;1.70;1.07;;;24.60;50.00;;;;;;6277383;22;20397;-75
2023/09/25 12:35:28;;;;;;;3.60;1.30;;;24.80;50.00;;;;;;6277296;22;20402;-75
2023/09/25 12:37:55;;;;;;;1.70;1.00;;;25.10;50.40;;;;;;6277302;22;20401;-75
2023/09/25 12:40:22;;;;;;;1.70;1.10;;;25.50;49.40;;;;;;6276857;22;20401;-76
2023/09/25 12:42:49;;;;;;;1.80;1.20;;;25.50;48.20;;;;;;6277180;22;20437;-76
2023/09/25 12:45:16;;;;;;;2.60;1.30;;;25.20;49.80;;;;;;6277224;22;20397;-76
2023/09/25 12:47:43;;;;;;;2.20;1.47;;;24.90;48.80;;;;;;6277313;22;20424;-76
2023/09/25 12:50:10;;;;;;;2.10;1.20;;;24.50;50.10;;;;;;6277416;22;20401;-75
2023/09/25 12:52:39;;;;;;;1.70;1.10;;;24.60;50.50;;;;;;6276777;22;20806;-75
2023/09/25 12:55:08;;;;;;;3.40;1.37;;;24.30;50.40;;;;;;6277348;22;20402;-76
2023/09/25 12:57:35;;;;;;;2.30;0.93;;;24.30;50.50;;;;;;6279010;22;20405;-76
2023/09/25 13:00:04;;;;;;;2.07;1.03;;;24.40;49.60;;;;;;6277763;22;20923;-76
2023/09/25 13:02:30;;;;;;;2.37;1.40;;;24.70;49.70;;;;;;6276948;22;20448;-76
2023/09/25 13:04:57;;;;;;;1.97;1.13;;;25.20;49.60;;;;;;6278283;22;20397;-75
2023/09/25 13:07:23;;;;;;;1.83;1.00;;;25.30;47.60;;;;;;6277322;22;20405;-75
2023/09/25 13:09:51;;;;;;;2.17;1.40;;;25.30;48.60;;;;;;6277029;22;20412;-74
2023/09/25 13:12:18;;;;;;;2.10;1.20;;;25.50;48.00;;;;;;6277140;22;20421;-75
2023/09/25 13:14:45;;;;;;;3.10;1.27;;;25.60;47.80;;;;;;6277379;22;20404;-76
2023/09/25 13:17:11;;;;;;;2.47;1.23;;;25.70;48.00;;;;;;6277619;22;20401;-75
2023/09/25 13:19:41;;;;;;;2.17;1.20;;;25.70;47.40;;;;;;6277139;22;20405;-75
2023/09/25 13:22:09;;;;;;;1.60;1.10;;;25.50;47.70;;;;;;6277254;22;20453;-75
2023/09/25 13:24:35;;;;;;;1.80;1.20;;;25.80;47.10;;;;;;6277284;22;20437;-75
2023/09/25 13:27:03;;;;;;;2.17;1.30;;;25.60;46.80;;;;;;6278227;22;20397;-75
2023/09/25 13:29:30;;;;;;;1.70;1.00;;;25.80;46.70;;;;;;6277471;22;20397;-75
2023/09/25 13:31:57;;;;;;;1.60;0.90;;;25.60;46.40;;;;;;6277106;22;20421;-75
2023/09/25 13:34:23;;;;;;;2.07;1.10;;;25.40;47.30;;;;;;6276839;22;20451;-75
2023/09/25 13:36:51;;;;;;;2.00;1.40;;;25.60;46.80;;;;;;6276870;22;20424;-75
2023/09/25 13:39:18;;;;;;;2.00;1.00;;;26.00;46.70;;;;;;6277451;22;20402;-75
2023/09/25 13:41:44;;;;;;;1.90;0.90;;;26.00;46.20;;;;;;6277576;22;20989;-75
2023/09/25 13:44:13;;;;;;;1.77;0.90;;;26.00;46.30;;;;;;6277366;22;20943;-74
2023/09/25 13:46:39;;;;;;;1.90;1.00;;;26.10;46.70;;;;;;6277060;22;20404;-75
2023/09/25 13:49:07;;;;;;;1.70;1.00;;;26.50;45.60;;;;;;6277292;22;20401;-75
2023/09/25 13:51:34;;;;;;;2.20;1.00;;;26.80;45.40;;;;;;6277045;22;20475;-74
2023/09/25 13:54:00;;;;;;;1.80;1.10;;;27.30;44.50;;;;;;6277448;22;20398;-75
2023/09/25 13:56:27;;;;;;;2.80;1.47;;;28.00;42.80;;;;;;6276748;22;20404;-74
2023/09/25 13:58:55;;;;;;;2.90;1.10;;;28.30;42.50;;;;;;6277733;22;20401;-74
2023/09/25 14:01:23;;;;;;;2.00;1.20;;;28.70;42.60;;;;;;6276707;22;20468;-75
2023/09/25 14:03:51;;;;;;;2.00;1.20;;;29.40;41.60;;;;;;6276127;22;20943;-75
2023/09/25 14:06:17;;;;;;;2.00;1.10;;;30.50;41.50;;;;;;6276192;22;20402;-75
2023/09/25 14:08:44;;;;;;;2.10;1.30;;;32.10;38.60;;;;;;6276179;22;20900;-75
2023/09/25 14:11:11;;;;;;;2.23;1.40;;;33.90;36.40;;;;;;6276634;22;20417;-74
2023/09/25 14:17:12;;;;;;;1.60;1.10;;;36.30;33.20;;;;;;6183067;23;20387;-75
2023/09/25 14:19:39;;;;;;;1.60;0.80;;;37.90;31.70;;;;;;6254511;22;20719;-76
2023/09/25 14:22:06;;;;;;;1.40;0.80;;;39.10;30.20;;;;;;6277385;22;20202;-74
2023/09/25 14:24:33;;;;;;;1.90;1.13;;;39.40;29.80;;;;;;6278701;22;20198;-75
2023/09/25 14:27:00;;;;;;;1.70;1.02;;;40.40;29.00;;;;;;6278627;22;20174;-75
2023/09/25 14:29:29;;;;;;;1.83;1.00;;;40.10;29.00;;;;;;6278299;22;20177;-75
2023/09/25 14:31:56;;;;;;;1.38;0.80;;;40.80;28.30;;;;;;6278527;22;20289;-76
2023/09/25 14:34:24;;;;;;;10.65;7.70;;;42.60;27.20;;;;;;6278075;22;25038;-75
2023/09/25 14:36:52;;;;;;;2.13;1.10;;;42.80;27.00;;;;;;6278928;22;20699;-75
2023/09/25 14:39:19;;;;;;;2.10;0.98;;;42.60;26.20;;;;;;6279176;22;20185;-75
2023/09/25 14:41:46;;;;;;;1.90;0.95;;;42.50;26.80;;;;;;6278939;22;20205;-76
2023/09/25 14:44:13;;;;;;;1.75;1.02;;;42.30;26.90;;;;;;6278721;22;20193;-76
2023/09/25 14:46:39;;;;;;;1.70;0.85;;;42.30;27.40;;;;;;6281291;22;20177;-75
2023/09/25 14:49:08;;;;;;;1.70;1.03;;;41.40;27.20;;;;;;6282595;22;20184;-75
2023/09/25 14:51:36;;;;;;;1.90;0.90;;;40.60;28.00;;;;;;6278501;22;20425;-74
2023/09/25 14:54:03;;;;;;;2.93;0.90;;;40.30;28.40;;;;;;6278657;22;20401;-75
2023/09/25 14:56:30;;;;;;;1.70;1.10;;;39.20;28.70;;;;;;6278615;22;20413;-74
2023/09/25 14:58:57;;;;;;;2.47;1.00;;;38.60;30.00;;;;;;6279792;22;20462;-75
2023/09/25 15:01:23;;;;;;;1.70;1.20;;;37.80;29.90;;;;;;6278852;22;20436;-75
2023/09/25 15:03:50;;;;;;;1.40;0.70;;;36.70;31.20;;;;;;6278615;22;20436;-75
2023/09/25 15:06:17;;;;;;;2.40;1.10;;;36.50;31.40;;;;;;6279200;22;20400;-75
2023/09/25 15:08:45;;;;;;;2.63;1.30;;;36.00;32.90;;;;;;6278849;22;20412;-75
2023/09/25 15:11:12;;;;;;;2.20;0.90;;;36.20;31.90;;;;;;6278307;22;20428;-74
2023/09/25 15:13:38;;;;;;;1.73;1.20;;;36.40;31.90;;;;;;6278130;22;20895;-75
2023/09/25 15:16:05;;;;;;;2.00;1.33;;;35.40;33.00;;;;;;6278095;22;20904;-74
2023/09/25 15:18:32;;;;;;;1.50;1.00;;;33.60;34.80;;;;;;6278523;22;20405;-75
2023/09/25 15:21:04;;;;;;;1.93;1.10;;;32.40;36.30;;;;;;6278853;22;20475;-75
2023/09/25 15:23:32;;;;;;;1.80;1.10;;;31.10;38.20;;;;;;6278361;22;20426;-75
2023/09/25 15:26:00;;;;;;;2.00;1.17;;;29.90;39.90;;;;;;6278353;22;20491;-76
2023/09/25 15:28:26;;;;;;;2.17;0.90;;;28.70;41.70;;;;;;6279615;22;20483;-75
2023/09/25 15:30:53;;;;;;;1.70;0.90;;;27.20;43.70;;;;;;6278921;22;20421;-75
2023/09/25 15:33:20;;;;;;;2.43;1.23;;;26.30;45.30;;;;;;6278201;22;20788;-75
2023/09/25 15:35:48;;;;;;;2.50;1.20;;;25.50;46.70;;;;;;6278342;22;20848;-75
2023/09/25 15:38:15;;;;;;;2.83;1.17;;;25.00;47.90;;;;;;6278230;22;20888;-75
2023/09/25 15:40:42;;;;;;;2.33;1.00;;;24.70;47.90;;;;;;6278197;22;20409;-75
2023/09/25 15:43:10;;;;;;;1.93;1.10;;;24.50;48.90;;;;;;6278938;22;20401;-74
2023/09/25 15:45:37;;;;;;;2.13;1.10;;;24.10;50.20;;;;;;6278267;22;20397;-75
2023/09/25 15:48:04;;;;;;;1.80;1.10;;;23.70;50.80;;;;;;6278181;22;20436;-74
2023/09/25 15:50:30;;;;;;;2.47;1.20;;;23.40;51.80;;;;;;6278153;22;20401;-74
2023/09/25 15:52:57;;;;;;;1.90;0.97;;;23.10;51.90;;;;;;6278479;22;20451;-75
2023/09/25 15:55:24;;;;;;;1.67;1.07;;;23.00;52.60;;;;;;6278426;22;20408;-75
2023/09/25 15:57:51;;;;;;;1.83;1.00;;;22.80;52.80;;;;;;6278240;22;20435;-75
2023/09/25 16:00:19;;;;;;;2.33;0.90;;;22.80;53.60;;;;;;6278039;22;20406;-75
2023/09/25 16:02:46;;;;;;;1.60;0.80;;;22.80;53.50;;;;;;6278411;22;20470;-75
2023/09/25 16:05:12;;;;;;;2.13;1.00;;;22.70;54.40;;;;;;6277778;22;20436;-74
2023/09/25 16:07:39;;;;;;;2.00;1.10;;;22.70;54.30;;;;;;6277885;22;20402;-75
2023/09/25 16:10:07;;;;;;;1.53;0.87;;;22.70;54.30;;;;;;6278660;22;20402;-74
2023/09/25 16:12:34;;;;;;;1.80;0.90;;;22.70;53.90;;;;;;6283500;22;20430;-74
2023/09/25 16:17:38;;;;;;;1.80;1.10;;;22.50;55.00;;;;;;6309329;22;20514;-73
2023/09/25 16:20:06;;;;;;;1.73;0.90;;;22.70;55.00;;;;;;6307985;22;20891;-73
2023/09/25 16:22:32;;;;;;;1.80;1.10;;;22.60;54.90;;;;;;6308723;22;20396;-73
2023/09/25 16:24:59;;;;;;;2.00;1.23;;;22.50;55.60;;;;;;6308255;22;20432;-72
2023/09/25 16:27:26;;;;;;;1.93;0.90;;;22.40;55.60;;;;;;6277463;22;20501;-73
2023/09/25 16:29:52;;;;;;;2.00;1.13;;;22.20;56.00;;;;;;6277732;22;20480;-73
2023/09/25 16:32:19;;;;;;;1.70;1.10;;;22.20;56.30;;;;;;6277364;22;20406;-73
2023/09/25 16:34:47;;;;;;;1.90;1.30;;;22.30;56.50;;;;;;6277335;22;20412;-73
2023/09/25 16:37:14;;;;;;;1.70;0.90;;;22.30;56.60;;;;;;6277207;22;20418;-73
2023/09/25 16:39:41;;;;;;;1.83;1.10;;;22.40;56.40;;;;;;6277332;22;20404;-73
2023/09/25 16:42:08;;;;;;;2.60;1.30;;;22.50;56.40;;;;;;6277314;22;20408;-73
2023/09/25 16:44:34;;;;;;;3.30;1.40;;;22.40;56.50;;;;;;6276772;22;20483;-73
2023/09/25 16:47:01;;;;;;;1.70;0.90;;;22.50;56.50;;;;;;6277107;22;20424;-73
2023/09/25 16:49:28;;;;;;;1.90;1.00;;;22.60;56.90;;;;;;6277221;22;20401;-72
2023/09/25 16:51:56;;;;;;;2.60;1.20;;;22.60;57.40;;;;;;6277150;22;20406;-73
2023/09/25 16:54:22;;;;;;;2.03;1.00;;;22.60;57.10;;;;;;6276736;22;20896;-73
2023/09/25 16:56:49;;;;;;;1.70;1.20;;;22.60;57.40;;;;;;6276681;22;20931;-72